Time;durP1;ratioP1;P1;durP2;ratioP2;P2;SDS_P1;SDS_P2;PMS_P1;PMS_P2;Temp;Humidity;BMP_temperature;BMP_pressure;BME280_temperature;BME280_humidity;BME280_pressure;Samples;Min_cycle;Max_cycle;Signal;HPM_P1;HPM_P2
2023/05/02 00:00:27;;;;;;;10.10;7.43;;;18.90;49.20;;;;;;5127162;27;20223;-76
2023/05/02 00:02:53;;;;;;;9.53;7.30;;;18.90;49.10;;;;;;5111217;27;20663;-77
2023/05/02 00:05:19;;;;;;;8.47;6.50;;;18.90;49.10;;;;;;5129219;27;20171;-76
2023/05/02 00:07:45;;;;;;;8.33;6.60;;;18.90;49.10;;;;;;5110298;27;20178;-76
2023/05/02 00:10:11;;;;;;;9.07;6.70;;;18.90;49.10;;;;;;5108882;27;20171;-80
2023/05/02 00:12:37;;;;;;;7.97;6.07;;;18.90;49.10;;;;;;5109888;27;20197;-77
2023/05/02 00:15:04;;;;;;;7.37;6.47;;;18.90;49.10;;;;;;5108949;27;20185;-76
2023/05/02 00:17:30;;;;;;;8.37;6.77;;;18.90;49.10;;;;;;5129690;27;20167;-79
2023/05/02 00:19:56;;;;;;;6.93;5.60;;;18.90;49.10;;;;;;5107511;27;20515;-80
2023/05/02 00:22:22;;;;;;;7.87;5.90;;;18.90;49.00;;;;;;5109038;27;20211;-77
2023/05/02 00:24:47;;;;;;;8.93;7.17;;;18.80;49.00;;;;;;5109229;27;20183;-78
2023/05/02 00:27:13;;;;;;;7.03;5.73;;;18.80;48.90;;;;;;5127750;27;20500;-77
2023/05/02 00:29:39;;;;;;;7.03;6.07;;;18.90;49.00;;;;;;5108585;28;20167;-77
2023/05/02 00:32:05;;;;;;;6.80;5.80;;;18.80;48.80;;;;;;5125466;27;20198;-78
2023/05/02 00:34:31;;;;;;;7.37;6.07;;;18.80;48.90;;;;;;5126844;27;20580;-79
2023/05/02 00:36:57;;;;;;;7.70;6.40;;;18.80;48.80;;;;;;5108774;27;20206;-78
2023/05/02 00:39:23;;;;;;;8.10;6.40;;;18.80;48.80;;;;;;5109039;28;20501;-79
2023/05/02 00:41:49;;;;;;;7.60;5.97;;;18.90;48.90;;;;;;5110631;28;20611;-80
2023/05/02 00:44:15;;;;;;;6.33;5.67;;;18.90;48.90;;;;;;5108869;28;20623;-80
2023/05/02 00:46:41;;;;;;;8.80;6.33;;;18.80;48.70;;;;;;5127233;28;20182;-79
2023/05/02 00:49:07;;;;;;;5.83;5.13;;;18.80;48.80;;;;;;5135118;27;20532;-78
2023/05/02 00:51:33;;;;;;;6.57;5.67;;;18.80;48.80;;;;;;5111482;27;20233;-77
2023/05/02 00:54:00;;;;;;;7.17;5.37;;;18.80;48.70;;;;;;5114052;27;20163;-76
2023/05/02 00:56:26;;;;;;;7.37;5.57;;;18.80;48.70;;;;;;5113948;27;20167;-76
2023/05/02 00:58:52;;;;;;;6.50;5.33;;;18.80;48.70;;;;;;5111873;27;20182;-77
2023/05/02 01:01:23;;;;;;;7.37;6.03;;;18.80;48.60;;;;;;5130420;27;20186;-80
2023/05/02 01:04:03;;;;;;;7.87;5.73;;;18.80;48.70;;;;;;5112088;27;20309;-77
2023/05/02 01:06:41;;;;;;;6.17;5.57;;;18.80;48.70;;;;;;5112521;27;20183;-80
2023/05/02 01:09:18;;;;;;;6.13;5.43;;;18.80;48.60;;;;;;5132545;27;20202;-80
2023/05/02 01:12:05;;;;;;;6.93;5.47;;;18.80;48.60;;;;;;5114728;27;20162;-76
2023/05/02 01:14:35;;;;;;;10.93;5.87;;;18.80;48.60;;;;;;5112369;27;20910;-79
2023/05/02 01:17:07;;;;;;;7.50;5.83;;;18.80;48.60;;;;;;5110616;27;20284;-76
2023/05/02 01:19:35;;;;;;;8.50;5.63;;;18.80;48.60;;;;;;5111469;27;20528;-76
2023/05/02 01:22:06;;;;;;;7.53;5.43;;;18.80;48.60;;;;;;5130276;27;20179;-77
2023/05/02 01:24:39;;;;;;;7.00;5.40;;;18.80;48.60;;;;;;5112366;27;20705;-79
2023/05/02 01:27:26;;;;;;;7.27;5.33;;;18.80;48.60;;;;;;5132442;27;20163;-78
2023/05/02 01:29:53;;;;;;;5.70;4.83;;;18.80;48.60;;;;;;5131129;27;20198;-77
2023/05/02 01:32:22;;;;;;;6.97;5.37;;;18.80;48.60;;;;;;5110698;27;20244;-80
2023/05/02 01:34:51;;;;;;;6.27;5.47;;;18.80;48.60;;;;;;5111955;27;20266;-79
2023/05/02 01:37:18;;;;;;;6.23;5.47;;;18.80;48.50;;;;;;5109637;27;20178;-79
2023/05/02 01:39:45;;;;;;;6.07;5.03;;;18.80;48.50;;;;;;5111728;27;20262;-77
2023/05/02 01:43:03;;;;;;;6.10;4.67;;;18.80;48.40;;;;;;5113182;27;20616;-77
2023/05/02 01:45:30;;;;;;;7.90;5.47;;;18.80;48.40;;;;;;5110803;27;20224;-79
2023/05/02 01:47:56;;;;;;;5.07;4.57;;;18.70;48.40;;;;;;5113810;27;20514;-77
2023/05/02 01:50:24;;;;;;;5.90;4.73;;;18.80;48.40;;;;;;5130074;27;20523;-79
2023/05/02 01:52:53;;;;;;;5.07;4.57;;;18.70;48.30;;;;;;5110511;27;20183;-79
2023/05/02 01:55:35;;;;;;;6.50;4.90;;;18.70;48.30;;;;;;5126921;27;20262;-77
2023/05/02 01:58:01;;;;;;;5.23;4.70;;;18.80;48.40;;;;;;5110839;27;20179;-80
2023/05/02 02:00:29;;;;;;;5.87;5.17;;;18.80;48.30;;;;;;5111776;27;20179;-79
2023/05/02 02:02:57;;;;;;;4.93;4.43;;;18.70;48.40;;;;;;5112661;27;20345;-77
2023/05/02 02:05:24;;;;;;;5.10;3.87;;;18.80;48.40;;;;;;5111848;27;20171;-79
2023/05/02 02:07:50;;;;;;;6.10;5.37;;;18.70;48.30;;;;;;5111111;27;20187;-79
2023/05/02 02:10:16;;;;;;;6.77;5.17;;;18.70;48.30;;;;;;5111246;27;20175;-77
2023/05/02 02:12:46;;;;;;;5.33;4.60;;;18.70;48.20;;;;;;5112181;27;20179;-79
2023/05/02 02:15:14;;;;;;;6.27;5.00;;;18.70;48.30;;;;;;5131734;27;20175;-80
2023/05/02 02:17:54;;;;;;;4.53;4.10;;;18.70;48.30;;;;;;5112004;27;20178;-77
2023/05/02 02:20:21;;;;;;;7.20;5.07;;;18.80;48.30;;;;;;5110471;27;21193;-77
2023/05/02 02:22:47;;;;;;;5.17;4.67;;;18.70;48.20;;;;;;5129751;27;20201;-79
2023/05/02 02:25:15;;;;;;;4.27;3.70;;;18.70;48.20;;;;;;5110630;27;20179;-78
2023/05/02 02:27:42;;;;;;;5.73;4.90;;;18.70;48.20;;;;;;5109248;27;20183;-77
2023/05/02 02:30:09;;;;;;;4.80;4.20;;;18.70;48.30;;;;;;5111999;27;20171;-79
2023/05/02 02:32:35;;;;;;;4.50;4.10;;;18.70;48.20;;;;;;5111611;27;20227;-79
2023/05/02 02:38:30;;;;;;;4.97;4.47;;;18.70;48.30;;;;;;5126510;27;20174;-81
2023/05/02 02:41:11;;;;;;;4.70;4.13;;;18.70;48.30;;;;;;5128305;27;20249;-78
2023/05/02 02:43:55;;;;;;;5.43;4.60;;;18.70;48.30;;;;;;5123596;27;20209;-80
2023/05/02 02:46:49;;;;;;;5.20;4.47;;;18.70;48.20;;;;;;5110720;27;20741;-79
2023/05/02 02:49:53;;;;;;;4.50;4.10;;;18.70;48.30;;;;;;5127845;27;20168;-78
2023/05/02 02:52:32;;;;;;;4.97;3.93;;;18.70;48.30;;;;;;5008570;28;20191;-77
2023/05/02 02:55:16;;;;;;;4.83;4.03;;;18.70;48.30;;;;;;4991556;28;20632;-78
2023/05/02 02:58:03;;;;;;;4.73;4.27;;;18.70;48.50;;;;;;5008353;28;20297;-78
2023/05/02 03:00:29;;;;;;;4.23;3.83;;;18.70;48.60;;;;;;5008104;28;20187;-77
2023/05/02 03:02:56;;;;;;;4.73;4.00;;;18.70;48.60;;;;;;4992877;28;20222;-79
2023/05/02 03:05:22;;;;;;;5.03;4.47;;;18.70;48.70;;;;;;4991398;28;20706;-77
2023/05/02 03:07:48;;;;;;;4.87;4.37;;;18.70;48.80;;;;;;5008211;28;20192;-77
2023/05/02 03:10:14;;;;;;;4.43;3.77;;;18.70;48.80;;;;;;5008390;28;20612;-76
2023/05/02 03:12:40;;;;;;;5.07;4.57;;;18.70;48.80;;;;;;5007274;28;20186;-77
2023/05/02 03:15:40;;;;;;;5.13;4.00;;;18.70;48.90;;;;;;5009363;28;20686;-77
2023/05/02 03:18:06;;;;;;;5.40;4.30;;;18.70;48.80;;;;;;5009247;28;20175;-77
2023/05/02 03:20:31;;;;;;;4.37;3.77;;;18.70;48.90;;;;;;5024690;28;20193;-79
2023/05/02 03:22:57;;;;;;;4.83;4.20;;;18.70;48.90;;;;;;5045073;27;20249;-78
2023/05/02 03:25:22;;;;;;;4.60;4.20;;;18.70;48.90;;;;;;5128718;27;20201;-77
2023/05/02 03:27:48;;;;;;;4.60;3.60;;;18.60;49.30;;;;;;5129180;27;20580;-78
2023/05/02 03:30:14;;;;;;;5.00;4.30;;;18.60;48.80;;;;;;5129001;27;20250;-77
2023/05/02 03:32:39;;;;;;;4.63;3.70;;;18.60;48.70;;;;;;5109109;27;20179;-78
2023/05/02 03:35:05;;;;;;;4.87;3.93;;;18.70;48.80;;;;;;5109285;27;20190;-75
2023/05/02 03:37:33;;;;;;;3.70;3.30;;;18.60;48.80;;;;;;5109172;27;20533;-77
2023/05/02 03:39:58;;;;;;;4.67;3.60;;;18.70;48.90;;;;;;5109345;27;20564;-77
2023/05/02 03:42:24;;;;;;;4.37;3.97;;;18.60;48.80;;;;;;5111699;27;20317;-78
2023/05/02 03:44:52;;;;;;;4.67;4.03;;;18.70;48.90;;;;;;5108202;27;20214;-78
2023/05/02 03:47:18;;;;;;;4.63;3.90;;;18.60;48.80;;;;;;5111649;27;20186;-78
2023/05/02 03:49:43;;;;;;;4.00;3.40;;;18.70;48.80;;;;;;5108849;27;20179;-78
2023/05/02 03:52:09;;;;;;;4.10;3.70;;;18.60;48.80;;;;;;5128950;27;20199;-78
2023/05/02 03:54:34;;;;;;;4.87;4.17;;;18.60;48.70;;;;;;5111328;27;20169;-77
2023/05/02 03:57:03;;;;;;;4.77;4.07;;;18.60;48.80;;;;;;5110302;27;20258;-78
2023/05/02 03:59:31;;;;;;;4.40;3.70;;;18.60;48.80;;;;;;5108305;27;20367;-77
2023/05/02 04:01:57;;;;;;;4.47;3.97;;;18.60;48.90;;;;;;5127125;27;20211;-78
2023/05/02 04:04:23;;;;;;;4.43;3.67;;;18.60;48.80;;;;;;5109786;27;20662;-78
2023/05/02 04:06:49;;;;;;;3.67;3.27;;;18.60;48.80;;;;;;5108595;27;20692;-76
2023/05/02 04:09:14;;;;;;;3.83;3.43;;;18.60;48.80;;;;;;5128676;27;20186;-78
2023/05/02 04:11:40;;;;;;;5.50;3.67;;;18.60;48.80;;;;;;5109912;27;20199;-78
2023/05/02 04:14:06;;;;;;;4.43;3.83;;;18.60;48.80;;;;;;5109725;27;20627;-77
2023/05/02 04:16:32;;;;;;;4.53;3.50;;;18.60;48.70;;;;;;5127249;27;20197;-77
2023/05/02 04:18:58;;;;;;;4.30;3.90;;;18.60;48.80;;;;;;5128072;27;20175;-79
2023/05/02 04:21:23;;;;;;;3.87;3.47;;;18.60;48.80;;;;;;5109790;27;20179;-77
2023/05/02 04:23:49;;;;;;;4.00;3.60;;;18.60;48.70;;;;;;5108293;28;20620;-78
2023/05/02 04:26:15;;;;;;;4.03;3.57;;;18.60;48.80;;;;;;5108530;28;20261;-79
2023/05/02 04:28:41;;;;;;;4.83;3.73;;;18.60;48.80;;;;;;5107458;27;20245;-77
2023/05/02 04:31:08;;;;;;;3.50;3.20;;;18.60;48.80;;;;;;5106755;28;20183;-76
2023/05/02 04:36:56;;;;;;;4.27;3.67;;;18.60;48.70;;;;;;5127006;27;20368;-78
2023/05/02 04:39:34;;;;;;;3.77;3.37;;;18.60;48.80;;;;;;5111090;28;20266;-78
2023/05/02 04:42:00;;;;;;;3.30;3.00;;;18.60;48.80;;;;;;5124521;28;20185;-76
2023/05/02 04:44:26;;;;;;;4.27;3.80;;;18.60;48.80;;;;;;5107533;28;20218;-77
2023/05/02 04:46:51;;;;;;;3.70;3.40;;;18.60;48.80;;;;;;5104439;28;20183;-77
2023/05/02 04:49:17;;;;;;;4.30;3.67;;;18.60;48.80;;;;;;5134490;27;20182;-80
2023/05/02 04:51:44;;;;;;;4.07;3.43;;;18.60;48.90;;;;;;5109016;28;20548;-78
2023/05/02 04:54:09;;;;;;;4.17;3.77;;;18.60;48.80;;;;;;5110260;28;20175;-77
2023/05/02 04:56:35;;;;;;;4.33;3.80;;;18.60;48.80;;;;;;5103731;28;20183;-76
2023/05/02 04:59:01;;;;;;;4.93;3.80;;;18.60;48.80;;;;;;5118014;28;20207;-78
2023/05/02 05:01:26;;;;;;;4.30;3.47;;;18.60;48.80;;;;;;5114767;28;20674;-78
2023/05/02 05:03:53;;;;;;;4.30;3.70;;;18.60;48.80;;;;;;5101247;28;20255;-79
2023/05/02 05:06:18;;;;;;;5.00;3.63;;;18.60;48.80;;;;;;5098795;28;20259;-76
2023/05/02 05:08:45;;;;;;;4.23;3.73;;;18.60;48.80;;;;;;5122124;28;20312;-78
2023/05/02 05:11:11;;;;;;;4.80;3.40;;;18.60;48.90;;;;;;5123666;28;20639;-76
2023/05/02 05:13:36;;;;;;;5.53;3.90;;;18.60;48.80;;;;;;5125448;28;20187;-76
2023/05/02 05:16:03;;;;;;;5.47;3.87;;;18.60;48.90;;;;;;5104559;28;20179;-78
2023/05/02 05:18:29;;;;;;;4.83;3.93;;;18.60;49.00;;;;;;5099983;28;20181;-78
2023/05/02 05:20:55;;;;;;;4.37;3.17;;;18.60;49.00;;;;;;5101989;28;20537;-78
2023/05/02 05:23:20;;;;;;;4.13;3.60;;;18.60;49.00;;;;;;5113048;28;20212;-76
2023/05/02 05:25:46;;;;;;;4.67;3.70;;;18.60;49.00;;;;;;5099805;28;20179;-79
2023/05/02 05:28:12;;;;;;;4.77;3.90;;;18.60;49.00;;;;;;5102913;28;20191;-81
2023/05/02 05:30:38;;;;;;;7.50;4.23;;;18.60;49.10;;;;;;5098737;28;20196;-77
2023/05/02 05:33:04;;;;;;;8.60;4.30;;;18.70;49.60;;;;;;5111398;28;20195;-77
2023/05/02 05:35:30;;;;;;;11.27;5.43;;;18.70;49.50;;;;;;5112716;27;20187;-85
2023/05/02 05:37:56;;;;;;;10.90;4.70;;;18.70;49.60;;;;;;5093253;27;20180;-79
2023/05/02 05:40:22;;;;;;;8.77;4.77;;;18.70;49.60;;;;;;5119704;27;20186;-76
2023/05/02 05:42:48;;;;;;;9.43;4.17;;;18.70;49.50;;;;;;5121778;27;20202;-76
2023/05/02 05:45:15;;;;;;;7.20;4.33;;;18.70;49.70;;;;;;5121518;27;20694;-79
2023/05/02 05:47:41;;;;;;;7.87;4.07;;;18.70;49.50;;;;;;5109832;27;20175;-75
2023/05/02 05:50:08;;;;;;;7.90;3.43;;;18.70;49.50;;;;;;5111848;27;20248;-78
2023/05/02 05:52:34;;;;;;;6.90;3.80;;;18.70;49.50;;;;;;5126823;27;20206;-77
2023/05/02 05:54:59;;;;;;;6.30;4.17;;;18.80;49.60;;;;;;5123192;27;20253;-77
2023/05/02 05:57:25;;;;;;;6.77;4.10;;;18.70;49.50;;;;;;5111626;27;20164;-78
2023/05/02 05:59:51;;;;;;;9.30;4.17;;;18.70;49.50;;;;;;5110764;27;20179;-76
2023/05/02 06:02:18;;;;;;;6.73;4.80;;;18.70;49.40;;;;;;5109506;27;20199;-78
2023/05/02 06:04:45;;;;;;;9.17;4.33;;;18.70;49.60;;;;;;5108960;27;20191;-78
2023/05/02 06:07:11;;;;;;;7.13;4.30;;;18.80;49.50;;;;;;5106361;27;20171;-77
2023/05/02 06:09:36;;;;;;;6.47;4.47;;;18.70;49.50;;;;;;5132308;27;20500;-77
2023/05/02 06:12:02;;;;;;;4.83;4.17;;;18.80;49.60;;;;;;5128746;27;20250;-78
2023/05/02 06:14:28;;;;;;;7.97;4.50;;;18.80;49.60;;;;;;5110907;27;20270;-77
2023/05/02 06:16:53;;;;;;;8.03;4.10;;;18.80;49.60;;;;;;5129433;27;20515;-78
2023/05/02 06:19:19;;;;;;;5.50;4.17;;;18.80;49.50;;;;;;5110203;27;20171;-77
2023/05/02 06:21:45;;;;;;;5.57;4.30;;;18.80;49.60;;;;;;5130892;27;20194;-78
2023/05/02 06:24:10;;;;;;;5.70;3.90;;;18.80;49.50;;;;;;5128704;27;20206;-78
2023/05/02 06:26:36;;;;;;;8.47;4.10;;;18.80;49.50;;;;;;5109742;27;20704;-78
2023/05/02 06:29:02;;;;;;;5.57;4.13;;;18.80;49.50;;;;;;5129716;27;20570;-78
2023/05/02 06:31:28;;;;;;;5.83;3.90;;;18.80;49.50;;;;;;5127672;27;20201;-78
2023/05/02 06:33:54;;;;;;;6.60;3.90;;;18.80;49.50;;;;;;5131525;27;20163;-78
2023/05/02 06:36:20;;;;;;;5.67;4.03;;;18.80;49.40;;;;;;5127635;27;20189;-78
2023/05/02 06:38:46;;;;;;;5.60;4.37;;;18.80;49.40;;;;;;5127902;27;20175;-77
2023/05/02 06:41:13;;;;;;;5.70;3.73;;;18.80;49.30;;;;;;5128710;27;20171;-78
2023/05/02 06:43:39;;;;;;;4.67;3.67;;;18.80;49.30;;;;;;5108632;27;20208;-78
2023/05/02 06:46:05;;;;;;;4.73;3.60;;;18.80;49.20;;;;;;5112913;27;20207;-78
2023/05/02 06:48:31;;;;;;;4.83;4.10;;;18.80;49.10;;;;;;5131754;27;20193;-78
2023/05/02 06:50:56;;;;;;;6.50;4.13;;;18.80;49.20;;;;;;5130947;27;20200;-79
2023/05/02 06:53:22;;;;;;;4.20;3.70;;;18.90;49.20;;;;;;5130909;27;20698;-78
2023/05/02 06:55:48;;;;;;;6.50;4.43;;;18.90;49.20;;;;;;5127557;27;20198;-77
2023/05/02 06:58:14;;;;;;;5.30;3.20;;;18.90;49.20;;;;;;5110692;27;20227;-77
2023/05/02 07:00:39;;;;;;;5.67;3.83;;;18.90;49.20;;;;;;5131243;27;20615;-78
2023/05/02 07:03:05;;;;;;;3.70;3.40;;;18.90;49.20;;;;;;5111717;27;20209;-77
2023/05/02 07:05:31;;;;;;;4.70;3.93;;;18.90;49.20;;;;;;5130625;27;20187;-76
2023/05/02 07:07:56;;;;;;;5.50;3.63;;;18.90;49.10;;;;;;5128175;27;20269;-76
2023/05/02 07:10:22;;;;;;;7.23;3.53;;;18.90;49.20;;;;;;5109529;27;20209;-78
2023/05/02 07:12:48;;;;;;;4.63;3.10;;;19.00;49.20;;;;;;5113254;27;20260;-78
2023/05/02 07:15:15;;;;;;;4.57;3.40;;;19.00;49.20;;;;;;5129451;27;20266;-78
2023/05/02 07:17:41;;;;;;;5.53;3.33;;;19.00;49.30;;;;;;5109577;27;20191;-77
2023/05/02 07:20:07;;;;;;;8.73;3.60;;;19.00;49.20;;;;;;5129742;27;20190;-78
2023/05/02 07:22:33;;;;;;;7.10;3.37;;;19.00;49.30;;;;;;5130030;27;20565;-78
2023/05/02 07:25:00;;;;;;;6.27;3.40;;;19.00;49.20;;;;;;5132117;27;20171;-77
2023/05/02 07:27:26;;;;;;;5.70;4.03;;;19.00;49.30;;;;;;5111951;27;20691;-79
2023/05/02 07:29:52;;;;;;;5.90;3.87;;;19.00;49.30;;;;;;5112023;27;20206;-78
2023/05/02 07:32:20;;;;;;;4.43;3.37;;;19.00;49.30;;;;;;5130449;27;20179;-80
2023/05/02 07:34:46;;;;;;;4.13;3.30;;;19.00;49.30;;;;;;5111939;27;20191;-80
2023/05/02 07:37:12;;;;;;;5.73;3.73;;;19.10;49.40;;;;;;5112001;27;20170;-77
2023/05/02 07:39:38;;;;;;;4.53;3.57;;;19.10;49.40;;;;;;5112082;27;20183;-76
2023/05/02 07:42:03;;;;;;;5.70;3.20;;;19.10;49.40;;;;;;5130363;27;20183;-79
2023/05/02 07:48:11;;;;;;;6.00;3.57;;;19.10;49.40;;;;;;5126290;27;20225;-76
2023/05/02 07:50:36;;;;;;;3.67;2.90;;;19.10;49.50;;;;;;5128112;27;20174;-78
2023/05/02 07:53:02;;;;;;;3.93;3.10;;;19.10;49.40;;;;;;5126691;27;20530;-78
2023/05/02 07:55:29;;;;;;;3.67;3.20;;;19.10;49.40;;;;;;5127233;27;20190;-79
2023/05/02 07:57:54;;;;;;;4.67;3.23;;;19.10;49.40;;;;;;5133815;27;20689;-78
2023/05/02 08:00:20;;;;;;;4.00;3.10;;;19.10;49.40;;;;;;5126250;27;20202;-78
2023/05/02 08:02:46;;;;;;;4.73;3.60;;;19.10;49.40;;;;;;5125489;27;20295;-80
2023/05/02 08:05:12;;;;;;;3.43;2.97;;;19.10;49.50;;;;;;5109166;27;20249;-78
2023/05/02 08:07:37;;;;;;;6.23;3.00;;;19.10;49.40;;;;;;5126872;27;20188;-79
2023/05/02 08:10:05;;;;;;;4.13;3.17;;;19.10;49.50;;;;;;5129753;27;20160;-77
2023/05/02 08:12:30;;;;;;;4.63;3.10;;;19.20;49.60;;;;;;5107469;27;20278;-76
2023/05/02 08:14:56;;;;;;;5.03;3.03;;;19.20;49.60;;;;;;5108252;27;20265;-79
2023/05/02 08:17:22;;;;;;;4.47;3.07;;;19.20;49.60;;;;;;5108018;27;20239;-78
2023/05/02 08:19:47;;;;;;;4.07;3.23;;;19.20;49.60;;;;;;5126113;27;20180;-77
2023/05/02 08:22:13;;;;;;;4.90;3.40;;;19.20;49.60;;;;;;5128908;27;20171;-77
2023/05/02 08:24:38;;;;;;;3.30;3.00;;;19.20;49.60;;;;;;5127645;27;20164;-76
2023/05/02 08:27:05;;;;;;;5.63;3.40;;;19.20;49.70;;;;;;5126529;27;20568;-77
2023/05/02 08:29:31;;;;;;;4.27;3.67;;;19.20;49.70;;;;;;5125146;27;20561;-79
2023/05/02 08:31:57;;;;;;;3.93;3.20;;;19.20;49.70;;;;;;5125414;27;20524;-76
2023/05/02 08:34:23;;;;;;;5.07;3.30;;;19.20;49.70;;;;;;5109909;27;20171;-76
2023/05/02 08:36:49;;;;;;;3.83;3.07;;;19.20;49.70;;;;;;5128577;27;20175;-78
2023/05/02 08:39:15;;;;;;;3.97;3.23;;;19.20;49.60;;;;;;5126673;27;20515;-75
2023/05/02 08:41:41;;;;;;;3.97;3.27;;;19.20;49.50;;;;;;5108927;28;20673;-79
2023/05/02 08:44:07;;;;;;;4.10;3.10;;;19.20;49.50;;;;;;5127257;28;20221;-79
2023/05/02 08:46:35;;;;;;;3.40;2.97;;;19.20;49.60;;;;;;5125905;28;20241;-76
2023/05/02 08:49:01;;;;;;;5.30;3.00;;;19.30;49.60;;;;;;5128531;28;20171;-76
2023/05/02 08:51:28;;;;;;;4.20;3.37;;;19.30;49.60;;;;;;5108708;28;20236;-77
2023/05/02 08:53:54;;;;;;;4.20;3.20;;;19.20;49.60;;;;;;5107385;28;20214;-76
2023/05/02 08:56:20;;;;;;;3.47;3.00;;;19.30;49.70;;;;;;5125423;28;20190;-78
2023/05/02 08:58:46;;;;;;;6.10;2.73;;;19.30;49.60;;;;;;5127255;28;20247;-75
2023/05/02 09:01:16;;;;;;;4.67;3.17;;;19.30;49.70;;;;;;5128452;28;20171;-79
2023/05/02 09:03:46;;;;;;;4.73;3.07;;;19.30;49.60;;;;;;5107189;28;20608;-76
2023/05/02 09:06:13;;;;;;;4.57;3.03;;;19.30;49.60;;;;;;5122398;28;20202;-79
2023/05/02 09:08:40;;;;;;;3.33;3.03;;;19.20;49.60;;;;;;5125928;28;20179;-79
2023/05/02 09:11:07;;;;;;;5.03;2.70;;;19.30;49.70;;;;;;5127560;27;20270;-76
2023/05/02 09:13:34;;;;;;;3.37;2.67;;;19.30;49.60;;;;;;5107842;27;20254;-79
2023/05/02 09:16:06;;;;;;;3.57;3.00;;;19.30;49.60;;;;;;5111952;27;20519;-75
2023/05/02 09:18:34;;;;;;;3.53;3.00;;;19.30;49.70;;;;;;5122646;27;20547;-75
2023/05/02 09:21:07;;;;;;;4.23;3.10;;;19.30;49.60;;;;;;5107968;27;20651;-75
2023/05/02 09:23:43;;;;;;;3.30;2.60;;;19.30;49.60;;;;;;5112222;27;20206;-76
2023/05/02 09:26:17;;;;;;;3.00;2.77;;;19.30;49.60;;;;;;5130219;27;20247;-76
2023/05/02 09:28:45;;;;;;;4.10;3.27;;;19.30;49.90;;;;;;5111474;27;20184;-76
2023/05/02 09:31:16;;;;;;;4.20;3.23;;;19.30;49.70;;;;;;5111628;27;20559;-76
2023/05/02 09:33:43;;;;;;;4.77;2.70;;;19.30;49.70;;;;;;5130134;27;20215;-76
2023/05/02 09:36:13;;;;;;;3.57;2.93;;;19.30;50.10;;;;;;5109294;27;20744;-76
2023/05/02 09:38:41;;;;;;;3.50;3.03;;;19.30;49.70;;;;;;5106926;27;20222;-76
2023/05/02 09:41:08;;;;;;;3.43;2.83;;;19.30;49.70;;;;;;5128049;27;20502;-75
2023/05/02 09:43:33;;;;;;;3.53;2.73;;;19.30;49.70;;;;;;5112145;27;20217;-76
2023/05/02 09:46:09;;;;;;;2.90;2.60;;;19.30;49.70;;;;;;5131906;27;20170;-76
2023/05/02 09:48:56;;;;;;;6.67;3.03;;;19.30;49.70;;;;;;5110185;28;20655;-77
2023/05/02 09:51:24;;;;;;;3.87;3.10;;;19.30;49.70;;;;;;5107129;28;20217;-78
2023/05/02 09:53:50;;;;;;;3.97;3.03;;;19.30;49.70;;;;;;5111421;27;20181;-76
2023/05/02 09:56:16;;;;;;;3.43;2.67;;;19.30;49.70;;;;;;5112534;27;20268;-77
2023/05/02 09:58:42;;;;;;;7.03;4.07;;;19.30;49.70;;;;;;5109395;28;20659;-75
2023/05/02 10:01:12;;;;;;;8.23;5.77;;;19.30;49.70;;;;;;5126036;27;20252;-76
2023/05/02 10:03:40;;;;;;;13.97;9.23;;;19.30;49.80;;;;;;5091132;28;20256;-76
2023/05/02 10:06:08;;;;;;;17.17;11.00;;;19.30;49.80;;;;;;5110241;28;20175;-76
2023/05/02 10:08:34;;;;;;;24.20;15.23;;;19.30;49.80;;;;;;5110513;28;20494;-76
2023/05/02 10:11:02;;;;;;;32.67;20.47;;;19.30;49.80;;;;;;5091970;28;20172;-76
2023/05/02 10:13:33;;;;;;;28.80;20.43;;;19.30;49.90;;;;;;5099365;28;20179;-76
2023/05/02 10:16:00;;;;;;;42.07;26.87;;;19.30;49.80;;;;;;5111224;28;20249;-76
2023/05/02 10:18:50;;;;;;;44.83;28.73;;;19.30;49.80;;;;;;5110396;28;20246;-76
2023/05/02 10:21:19;;;;;;;54.40;35.87;;;19.30;49.90;;;;;;5110277;28;20263;-76
2023/05/02 10:23:45;;;;;;;70.93;46.00;;;19.30;49.90;;;;;;5090180;28;20216;-76
2023/05/02 10:26:16;;;;;;;70.57;45.93;;;19.30;50.00;;;;;;5110746;28;20263;-76
2023/05/02 10:28:42;;;;;;;89.97;58.43;;;19.30;50.00;;;;;;5086649;28;20200;-76
2023/05/02 10:31:12;;;;;;;86.33;59.80;;;19.30;50.10;;;;;;5091939;28;20176;-76
2023/05/02 10:33:39;;;;;;;109.73;72.53;;;19.40;50.20;;;;;;5110350;28;20183;-76
2023/05/02 10:36:08;;;;;;;108.43;71.00;;;19.30;50.10;;;;;;5111231;28;20195;-76
2023/05/02 10:38:36;;;;;;;119.87;78.37;;;19.40;50.20;;;;;;5092268;28;20262;-76
2023/05/02 10:41:12;;;;;;;118.37;79.77;;;19.30;50.10;;;;;;5099630;28;20183;-76
2023/05/02 10:43:38;;;;;;;124.47;80.73;;;19.30;50.10;;;;;;5091827;28;20202;-76
2023/05/02 10:46:34;;;;;;;122.53;81.23;;;19.30;50.10;;;;;;5108369;28;20175;-76
2023/05/02 10:49:05;;;;;;;120.10;81.40;;;19.40;50.20;;;;;;5127113;27;20175;-76
2023/05/02 10:51:32;;;;;;;125.23;84.07;;;19.40;50.10;;;;;;5123746;27;20254;-75
2023/05/02 10:54:24;;;;;;;124.67;81.10;;;19.30;50.00;;;;;;5109518;27;20205;-76
2023/05/02 10:57:05;;;;;;;123.87;84.13;;;19.30;50.00;;;;;;5123505;27;20187;-75
2023/05/02 10:59:39;;;;;;;115.67;79.07;;;19.30;50.00;;;;;;5111466;27;20634;-75
2023/05/02 11:02:26;;;;;;;119.30;81.20;;;19.30;50.00;;;;;;5110046;27;20188;-75
2023/05/02 11:05:05;;;;;;;121.33;81.60;;;19.30;49.90;;;;;;5128760;27;20722;-75
2023/05/02 11:07:35;;;;;;;113.93;76.67;;;19.30;49.90;;;;;;5131085;27;20174;-75
2023/05/02 11:10:16;;;;;;;107.87;77.83;;;19.30;49.90;;;;;;5128276;27;20183;-76
2023/05/02 11:12:50;;;;;;;111.77;74.93;;;19.30;49.90;;;;;;5108397;27;20252;-76
2023/05/02 11:15:27;;;;;;;112.40;74.33;;;19.30;49.90;;;;;;5126667;27;20182;-76
2023/05/02 11:18:08;;;;;;;111.53;75.27;;;19.30;49.90;;;;;;5127365;27;20206;-76
2023/05/02 11:20:34;;;;;;;98.40;68.33;;;19.30;49.90;;;;;;5107571;27;20211;-76
2023/05/02 11:23:20;;;;;;;107.63;72.50;;;19.30;49.90;;;;;;5127517;27;20325;-76
2023/05/02 11:25:52;;;;;;;101.97;68.33;;;19.30;49.80;;;;;;5109783;27;20256;-76
2023/05/02 11:28:35;;;;;;;96.27;67.03;;;19.30;49.80;;;;;;5129032;27;20239;-76
2023/05/02 11:31:05;;;;;;;98.20;63.60;;;19.30;49.80;;;;;;5107890;27;20623;-76
2023/05/02 11:33:31;;;;;;;97.50;64.17;;;19.30;49.80;;;;;;5125848;27;20187;-75
2023/05/02 11:35:57;;;;;;;88.60;62.73;;;19.30;49.80;;;;;;5109058;27;20186;-76
2023/05/02 11:38:24;;;;;;;84.17;60.13;;;19.30;49.80;;;;;;5109757;27;20171;-76
2023/05/02 11:40:56;;;;;;;88.70;58.80;;;19.30;49.80;;;;;;5109355;27;20229;-76
2023/05/02 11:43:24;;;;;;;83.70;58.87;;;19.30;49.80;;;;;;5127690;27;20238;-76
2023/05/02 11:45:51;;;;;;;84.90;59.13;;;19.30;49.80;;;;;;5124742;27;20197;-76
2023/05/02 11:48:18;;;;;;;84.77;57.43;;;19.30;49.70;;;;;;5126885;27;20221;-76
2023/05/02 11:50:51;;;;;;;84.67;56.17;;;19.30;49.70;;;;;;5106734;27;20175;-76
2023/05/02 11:53:22;;;;;;;83.33;54.80;;;19.30;49.70;;;;;;5108734;27;20536;-76
2023/05/02 11:55:49;;;;;;;72.47;51.03;;;19.30;49.70;;;;;;5127444;27;20159;-75
2023/05/02 11:58:17;;;;;;;71.37;51.43;;;19.30;49.70;;;;;;5127539;27;20166;-75
2023/05/02 12:00:45;;;;;;;74.23;53.43;;;19.30;49.70;;;;;;5125117;27;20201;-76
2023/05/02 12:03:23;;;;;;;70.10;47.90;;;19.30;49.70;;;;;;5109013;27;20217;-75
2023/05/02 12:05:50;;;;;;;66.20;46.00;;;19.30;49.70;;;;;;5124802;27;20236;-76
2023/05/02 12:08:24;;;;;;;64.90;49.13;;;19.30;49.70;;;;;;5107550;27;20253;-76
2023/05/02 12:10:52;;;;;;;59.20;44.00;;;19.30;49.70;;;;;;5108046;27;20198;-76
2023/05/02 12:13:19;;;;;;;64.73;45.03;;;19.30;49.60;;;;;;5110024;27;20185;-76
2023/05/02 12:15:45;;;;;;;59.70;42.57;;;19.30;49.60;;;;;;5125022;27;20177;-76
2023/05/02 12:18:11;;;;;;;64.10;44.50;;;19.30;49.70;;;;;;5126347;27;20187;-76
2023/05/02 12:20:38;;;;;;;65.47;45.53;;;19.30;49.70;;;;;;5126990;27;20187;-76
2023/05/02 12:23:05;;;;;;;58.93;41.63;;;19.30;49.70;;;;;;5127072;27;20304;-76
2023/05/02 12:25:35;;;;;;;57.93;42.10;;;19.30;49.70;;;;;;5108676;27;20172;-75
2023/05/02 12:28:01;;;;;;;59.33;42.00;;;19.30;49.60;;;;;;5122283;27;20178;-76
2023/05/02 12:30:28;;;;;;;57.77;42.23;;;19.30;49.70;;;;;;5106039;27;20312;-76
2023/05/02 12:33:02;;;;;;;52.70;39.17;;;19.30;49.70;;;;;;5126756;27;20187;-77
2023/05/02 12:35:30;;;;;;;54.80;39.90;;;19.30;49.70;;;;;;5125907;27;20183;-76
2023/05/02 12:38:10;;;;;;;56.50;39.87;;;19.30;49.60;;;;;;5108983;27;20209;-77
2023/05/02 12:40:37;;;;;;;52.23;39.03;;;19.30;49.70;;;;;;5107657;27;20159;-76
2023/05/02 12:43:05;;;;;;;51.67;36.63;;;19.30;49.70;;;;;;5107997;27;20240;-77
2023/05/02 12:45:33;;;;;;;48.87;37.03;;;19.30;49.70;;;;;;5105253;28;21694;-76
2023/05/02 12:48:00;;;;;;;50.40;37.17;;;19.30;49.70;;;;;;5123664;28;20234;-77
2023/05/02 12:50:38;;;;;;;50.30;36.53;;;19.30;49.70;;;;;;5125392;28;20187;-76
2023/05/02 12:53:05;;;;;;;52.10;36.57;;;19.30;49.70;;;;;;5126933;28;20667;-77
2023/05/02 12:55:33;;;;;;;45.10;34.03;;;19.30;49.70;;;;;;5108953;28;20167;-77
2023/05/02 12:58:02;;;;;;;48.17;35.10;;;19.30;49.70;;;;;;5125301;28;20179;-76